sensor_id;sensor_type;location;lat;lon;timestamp;temperature;humidity
610;DHT22;292;48.800;9.216;2023-02-11T00:02:15;2.30;62.70
610;DHT22;292;48.800;9.216;2023-02-11T00:04:42;2.30;62.70
610;DHT22;292;48.800;9.216;2023-02-11T00:07:10;2.40;62.80
610;DHT22;292;48.800;9.216;2023-02-11T00:09:37;2.40;62.50
610;DHT22;292;48.800;9.216;2023-02-11T00:12:04;2.40;62.40
610;DHT22;292;48.800;9.216;2023-02-11T00:14:32;2.30;62.40
610;DHT22;292;48.800;9.216;2023-02-11T00:16:58;2.20;62.50
610;DHT22;292;48.800;9.216;2023-02-11T00:19:26;2.20;62.70
610;DHT22;292;48.800;9.216;2023-02-11T00:21:53;2.10;63.00
610;DHT22;292;48.800;9.216;2023-02-11T00:24:21;2.10;62.80
610;DHT22;292;48.800;9.216;2023-02-11T00:26:48;2.10;63.00
610;DHT22;292;48.800;9.216;2023-02-11T00:29:15;2.00;63.10
610;DHT22;292;48.800;9.216;2023-02-11T00:31:42;2.10;63.30
610;DHT22;292;48.800;9.216;2023-02-11T00:34:09;2.00;63.30
610;DHT22;292;48.800;9.216;2023-02-11T00:36:36;2.00;63.30
610;DHT22;292;48.800;9.216;2023-02-11T00:39:03;2.00;63.40
610;DHT22;292;48.800;9.216;2023-02-11T00:41:32;2.00;63.60
610;DHT22;292;48.800;9.216;2023-02-11T00:44:00;2.00;63.60
610;DHT22;292;48.800;9.216;2023-02-11T00:46:28;1.90;63.60
610;DHT22;292;48.800;9.216;2023-02-11T00:48:55;1.90;63.70
610;DHT22;292;48.800;9.216;2023-02-11T00:51:22;1.90;63.80
610;DHT22;292;48.800;9.216;2023-02-11T00:53:50;1.80;63.80
610;DHT22;292;48.800;9.216;2023-02-11T00:56:17;1.80;64.00
610;DHT22;292;48.800;9.216;2023-02-11T00:58:45;1.80;64.00
610;DHT22;292;48.800;9.216;2023-02-11T01:01:13;1.80;64.10
610;DHT22;292;48.800;9.216;2023-02-11T01:03:40;1.70;64.40
610;DHT22;292;48.800;9.216;2023-02-11T01:06:27;1.70;64.40
610;DHT22;292;48.800;9.216;2023-02-11T01:08:54;1.70;64.70
610;DHT22;292;48.800;9.216;2023-02-11T01:11:21;1.70;64.70
610;DHT22;292;48.800;9.216;2023-02-11T01:13:50;1.60;64.90
610;DHT22;292;48.800;9.216;2023-02-11T01:16:18;1.60;65.00
610;DHT22;292;48.800;9.216;2023-02-11T01:18:45;1.60;65.00
610;DHT22;292;48.800;9.216;2023-02-11T01:21:12;1.60;65.10
610;DHT22;292;48.800;9.216;2023-02-11T01:23:40;1.60;65.10
610;DHT22;292;48.800;9.216;2023-02-11T01:26:08;1.60;65.30
610;DHT22;292;48.800;9.216;2023-02-11T01:28:34;1.60;65.40
610;DHT22;292;48.800;9.216;2023-02-11T01:31:03;1.60;65.40
610;DHT22;292;48.800;9.216;2023-02-11T01:33:30;1.50;65.40
610;DHT22;292;48.800;9.216;2023-02-11T01:36:00;1.50;65.40
610;DHT22;292;48.800;9.216;2023-02-11T01:38:28;1.50;65.60
610;DHT22;292;48.800;9.216;2023-02-11T01:40:57;1.50;65.60
610;DHT22;292;48.800;9.216;2023-02-11T01:43:26;1.50;65.60
610;DHT22;292;48.800;9.216;2023-02-11T01:48:44;1.40;65.90
610;DHT22;292;48.800;9.216;2023-02-11T01:51:15;1.40;65.90
610;DHT22;292;48.800;9.216;2023-02-11T01:53:45;1.40;66.00
610;DHT22;292;48.800;9.216;2023-02-11T01:56:35;1.40;66.00
610;DHT22;292;48.800;9.216;2023-02-11T01:59:23;1.30;66.20
610;DHT22;292;48.800;9.216;2023-02-11T02:01:56;1.30;66.30
610;DHT22;292;48.800;9.216;2023-02-11T02:04:27;1.30;66.30
610;DHT22;292;48.800;9.216;2023-02-11T02:07:00;1.30;66.40
610;DHT22;292;48.800;9.216;2023-02-11T02:09:33;1.30;66.40
610;DHT22;292;48.800;9.216;2023-02-11T02:12:03;1.30;66.60
610;DHT22;292;48.800;9.216;2023-02-11T02:14:30;1.30;66.60
610;DHT22;292;48.800;9.216;2023-02-11T02:16:57;1.30;66.60
610;DHT22;292;48.800;9.216;2023-02-11T02:20:00;1.20;66.70
610;DHT22;292;48.800;9.216;2023-02-11T02:22:52;1.20;66.70
610;DHT22;292;48.800;9.216;2023-02-11T02:25:53;1.20;66.90
610;DHT22;292;48.800;9.216;2023-02-11T02:28:53;1.10;66.90
610;DHT22;292;48.800;9.216;2023-02-11T02:31:40;1.10;67.00
610;DHT22;292;48.800;9.216;2023-02-11T02:34:17;1.10;67.20
610;DHT22;292;48.800;9.216;2023-02-11T02:36:48;1.10;67.00
610;DHT22;292;48.800;9.216;2023-02-11T02:39:20;1.10;67.20
610;DHT22;292;48.800;9.216;2023-02-11T02:41:51;1.10;67.30
610;DHT22;292;48.800;9.216;2023-02-11T02:44:19;1.10;67.30
610;DHT22;292;48.800;9.216;2023-02-11T02:46:47;1.10;67.50
610;DHT22;292;48.800;9.216;2023-02-11T02:49:16;1.10;67.50
610;DHT22;292;48.800;9.216;2023-02-11T02:55:02;1.10;67.50
610;DHT22;292;48.800;9.216;2023-02-11T02:57:40;1.10;67.50
610;DHT22;292;48.800;9.216;2023-02-11T03:00:20;1.00;67.50
610;DHT22;292;48.800;9.216;2023-02-11T03:03:01;1.00;67.50
610;DHT22;292;48.800;9.216;2023-02-11T03:05:40;1.00;67.60
610;DHT22;292;48.800;9.216;2023-02-11T03:08:13;1.00;67.90
610;DHT22;292;48.800;9.216;2023-02-11T03:10:44;1.00;68.20
610;DHT22;292;48.800;9.216;2023-02-11T03:13:12;1.10;68.20
610;DHT22;292;48.800;9.216;2023-02-11T03:15:44;1.10;67.90
610;DHT22;292;48.800;9.216;2023-02-11T03:18:16;1.10;67.90
610;DHT22;292;48.800;9.216;2023-02-11T03:20:48;1.10;67.90
610;DHT22;292;48.800;9.216;2023-02-11T03:23:20;1.10;67.90
610;DHT22;292;48.800;9.216;2023-02-11T03:25:54;1.10;68.00
610;DHT22;292;48.800;9.216;2023-02-11T03:28:28;1.10;68.00
610;DHT22;292;48.800;9.216;2023-02-11T03:31:06;1.10;67.90
610;DHT22;292;48.800;9.216;2023-02-11T03:33:37;1.10;67.90
610;DHT22;292;48.800;9.216;2023-02-11T03:36:11;1.10;67.90
610;DHT22;292;48.800;9.216;2023-02-11T03:38:45;1.10;67.90
610;DHT22;292;48.800;9.216;2023-02-11T03:41:15;1.10;68.20
610;DHT22;292;48.800;9.216;2023-02-11T03:43:48;1.10;68.30
610;DHT22;292;48.800;9.216;2023-02-11T03:46:21;1.10;68.30
610;DHT22;292;48.800;9.216;2023-02-11T03:48:52;1.10;68.60
610;DHT22;292;48.800;9.216;2023-02-11T03:51:24;1.10;68.50
610;DHT22;292;48.800;9.216;2023-02-11T03:53:54;1.10;68.50
610;DHT22;292;48.800;9.216;2023-02-11T03:56:25;1.20;68.50
610;DHT22;292;48.800;9.216;2023-02-11T03:58:53;1.10;68.50
610;DHT22;292;48.800;9.216;2023-02-11T04:01:21;1.10;68.30
610;DHT22;292;48.800;9.216;2023-02-11T04:03:48;1.10;68.30
610;DHT22;292;48.800;9.216;2023-02-11T04:06:15;1.10;68.70
610;DHT22;292;48.800;9.216;2023-02-11T04:08:44;1.10;68.70
610;DHT22;292;48.800;9.216;2023-02-11T04:11:11;1.10;68.70
610;DHT22;292;48.800;9.216;2023-02-11T04:13:38;1.10;68.70
610;DHT22;292;48.800;9.216;2023-02-11T04:16:05;1.20;68.90
610;DHT22;292;48.800;9.216;2023-02-11T04:18:32;1.20;68.90
610;DHT22;292;48.800;9.216;2023-02-11T04:20:59;1.20;68.90
610;DHT22;292;48.800;9.216;2023-02-11T04:23:26;1.30;68.70
610;DHT22;292;48.800;9.216;2023-02-11T04:25:55;1.30;68.70
610;DHT22;292;48.800;9.216;2023-02-11T04:28:22;1.30;68.60
610;DHT22;292;48.800;9.216;2023-02-11T04:30:51;1.30;68.60
610;DHT22;292;48.800;9.216;2023-02-11T04:33:20;1.20;68.50
610;DHT22;292;48.800;9.216;2023-02-11T04:35:47;1.20;68.60
610;DHT22;292;48.800;9.216;2023-02-11T04:38:14;1.20;68.60
610;DHT22;292;48.800;9.216;2023-02-11T04:40:41;1.20;68.60
610;DHT22;292;48.800;9.216;2023-02-11T04:43:10;1.20;68.70
610;DHT22;292;48.800;9.216;2023-02-11T04:45:37;1.20;68.70
610;DHT22;292;48.800;9.216;2023-02-11T04:48:04;1.10;68.70
610;DHT22;292;48.800;9.216;2023-02-11T04:50:31;1.20;69.20
610;DHT22;292;48.800;9.216;2023-02-11T04:52:58;1.20;69.20
610;DHT22;292;48.800;9.216;2023-02-11T04:55:25;1.20;69.20
610;DHT22;292;48.800;9.216;2023-02-11T04:57:52;1.20;68.90
610;DHT22;292;48.800;9.216;2023-02-11T05:00:21;1.30;68.70
610;DHT22;292;48.800;9.216;2023-02-11T05:02:48;1.30;68.60
610;DHT22;292;48.800;9.216;2023-02-11T05:05:15;1.30;68.70
610;DHT22;292;48.800;9.216;2023-02-11T05:07:42;1.30;68.70
610;DHT22;292;48.800;9.216;2023-02-11T05:10:09;1.20;68.70
610;DHT22;292;48.800;9.216;2023-02-11T05:12:36;1.20;68.90
610;DHT22;292;48.800;9.216;2023-02-11T05:15:04;1.20;69.20
610;DHT22;292;48.800;9.216;2023-02-11T05:17:32;1.30;69.20
610;DHT22;292;48.800;9.216;2023-02-11T05:19:59;1.30;69.20
610;DHT22;292;48.800;9.216;2023-02-11T05:22:26;1.30;69.30
610;DHT22;292;48.800;9.216;2023-02-11T05:24:53;1.30;69.30
610;DHT22;292;48.800;9.216;2023-02-11T05:27:20;1.30;69.30
610;DHT22;292;48.800;9.216;2023-02-11T05:29:47;1.30;69.50
610;DHT22;292;48.800;9.216;2023-02-11T05:32:14;1.30;69.50
610;DHT22;292;48.800;9.216;2023-02-11T05:34:43;1.30;69.60
610;DHT22;292;48.800;9.216;2023-02-11T05:37:10;1.30;69.60
610;DHT22;292;48.800;9.216;2023-02-11T05:39:37;1.30;69.60
610;DHT22;292;48.800;9.216;2023-02-11T05:42:04;1.40;69.60
610;DHT22;292;48.800;9.216;2023-02-11T05:44:31;1.40;69.60
610;DHT22;292;48.800;9.216;2023-02-11T05:46:58;1.40;69.60
610;DHT22;292;48.800;9.216;2023-02-11T05:49:25;1.40;69.60
610;DHT22;292;48.800;9.216;2023-02-11T05:51:54;1.40;69.60
610;DHT22;292;48.800;9.216;2023-02-11T05:54:21;1.40;69.80
610;DHT22;292;48.800;9.216;2023-02-11T05:56:48;1.50;69.80
610;DHT22;292;48.800;9.216;2023-02-11T05:59:15;1.50;69.60
610;DHT22;292;48.800;9.216;2023-02-11T06:01:42;1.50;69.60
610;DHT22;292;48.800;9.216;2023-02-11T06:04:09;1.60;69.60
610;DHT22;292;48.800;9.216;2023-02-11T06:06:37;1.60;69.60
610;DHT22;292;48.800;9.216;2023-02-11T06:09:05;1.60;69.60
610;DHT22;292;48.800;9.216;2023-02-11T06:11:32;1.70;69.60
610;DHT22;292;48.800;9.216;2023-02-11T06:14:00;1.70;69.60
610;DHT22;292;48.800;9.216;2023-02-11T06:16:27;1.70;69.60
610;DHT22;292;48.800;9.216;2023-02-11T06:18:54;1.80;69.60
610;DHT22;292;48.800;9.216;2023-02-11T06:21:21;1.80;69.60
610;DHT22;292;48.800;9.216;2023-02-11T06:23:48;1.90;69.60
610;DHT22;292;48.800;9.216;2023-02-11T06:26:18;1.90;69.30
610;DHT22;292;48.800;9.216;2023-02-11T06:28:46;1.90;69.20
610;DHT22;292;48.800;9.216;2023-02-11T06:31:13;1.90;68.90
610;DHT22;292;48.800;9.216;2023-02-11T06:33:40;1.90;68.70
610;DHT22;292;48.800;9.216;2023-02-11T06:36:14;1.90;68.90
610;DHT22;292;48.800;9.216;2023-02-11T06:38:43;1.90;68.90
610;DHT22;292;48.800;9.216;2023-02-11T06:41:11;1.90;68.60
610;DHT22;292;48.800;9.216;2023-02-11T06:43:40;1.90;68.60
610;DHT22;292;48.800;9.216;2023-02-11T06:46:08;1.90;68.60
610;DHT22;292;48.800;9.216;2023-02-11T06:48:35;1.90;68.70
610;DHT22;292;48.800;9.216;2023-02-11T06:51:03;1.90;68.60
610;DHT22;292;48.800;9.216;2023-02-11T06:53:30;1.90;68.60
610;DHT22;292;48.800;9.216;2023-02-11T06:56:01;1.90;68.70
610;DHT22;292;48.800;9.216;2023-02-11T06:58:29;1.90;68.90
610;DHT22;292;48.800;9.216;2023-02-11T07:00:57;1.90;68.70
610;DHT22;292;48.800;9.216;2023-02-11T07:03:25;1.90;68.70
610;DHT22;292;48.800;9.216;2023-02-11T07:05:52;2.00;68.70
610;DHT22;292;48.800;9.216;2023-02-11T07:08:19;2.00;68.70
610;DHT22;292;48.800;9.216;2023-02-11T07:10:46;2.00;68.70
610;DHT22;292;48.800;9.216;2023-02-11T07:13:13;2.10;68.60
610;DHT22;292;48.800;9.216;2023-02-11T07:15:40;2.00;68.60
610;DHT22;292;48.800;9.216;2023-02-11T07:18:08;2.00;68.60
610;DHT22;292;48.800;9.216;2023-02-11T07:20:36;2.00;68.70
610;DHT22;292;48.800;9.216;2023-02-11T07:23:03;2.10;68.70
610;DHT22;292;48.800;9.216;2023-02-11T07:25:30;2.10;68.70
610;DHT22;292;48.800;9.216;2023-02-11T07:27:57;2.10;68.60
610;DHT22;292;48.800;9.216;2023-02-11T07:30:24;2.10;68.60
610;DHT22;292;48.800;9.216;2023-02-11T07:32:51;2.10;68.70
610;DHT22;292;48.800;9.216;2023-02-11T07:35:20;2.20;68.70
610;DHT22;292;48.800;9.216;2023-02-11T07:37:47;2.20;68.90
610;DHT22;292;48.800;9.216;2023-02-11T07:40:14;2.30;68.70
610;DHT22;292;48.800;9.216;2023-02-11T07:42:41;2.30;68.70
610;DHT22;292;48.800;9.216;2023-02-11T07:45:08;2.30;68.60
610;DHT22;292;48.800;9.216;2023-02-11T07:47:35;2.40;68.60
610;DHT22;292;48.800;9.216;2023-02-11T07:50:03;2.40;68.70
610;DHT22;292;48.800;9.216;2023-02-11T07:52:34;2.40;68.60
610;DHT22;292;48.800;9.216;2023-02-11T07:55:01;2.50;68.50
610;DHT22;292;48.800;9.216;2023-02-11T07:57:28;2.50;68.30
610;DHT22;292;48.800;9.216;2023-02-11T07:59:55;2.50;68.30
610;DHT22;292;48.800;9.216;2023-02-11T08:02:22;2.50;68.20
610;DHT22;292;48.800;9.216;2023-02-11T08:04:49;2.60;68.30
610;DHT22;292;48.800;9.216;2023-02-11T08:07:16;2.60;68.20
610;DHT22;292;48.800;9.216;2023-02-11T08:09:48;2.60;68.20
610;DHT22;292;48.800;9.216;2023-02-11T08:12:18;2.70;68.20
610;DHT22;292;48.800;9.216;2023-02-11T08:14:45;2.70;68.20
610;DHT22;292;48.800;9.216;2023-02-11T08:17:12;2.80;68.00
610;DHT22;292;48.800;9.216;2023-02-11T08:19:39;2.80;68.20
610;DHT22;292;48.800;9.216;2023-02-11T08:22:06;2.90;68.20
610;DHT22;292;48.800;9.216;2023-02-11T08:24:33;2.90;68.20
610;DHT22;292;48.800;9.216;2023-02-11T08:27:02;3.00;68.20
610;DHT22;292;48.800;9.216;2023-02-11T08:29:29;3.10;67.90
610;DHT22;292;48.800;9.216;2023-02-11T08:31:56;3.20;67.90
610;DHT22;292;48.800;9.216;2023-02-11T08:34:23;3.30;67.70
610;DHT22;292;48.800;9.216;2023-02-11T08:36:50;3.40;67.60
610;DHT22;292;48.800;9.216;2023-02-11T08:39:21;3.40;67.60
610;DHT22;292;48.800;9.216;2023-02-11T08:41:49;3.50;67.30
610;DHT22;292;48.800;9.216;2023-02-11T08:44:19;3.60;66.90
610;DHT22;292;48.800;9.216;2023-02-11T08:46:47;3.70;66.90
610;DHT22;292;48.800;9.216;2023-02-11T08:49:14;3.70;66.60
610;DHT22;292;48.800;9.216;2023-02-11T08:51:42;3.80;66.90
610;DHT22;292;48.800;9.216;2023-02-11T08:54:09;4.00;66.70
610;DHT22;292;48.800;9.216;2023-02-11T08:56:37;4.20;66.40
610;DHT22;292;48.800;9.216;2023-02-11T08:59:05;4.40;66.00
610;DHT22;292;48.800;9.216;2023-02-11T09:01:35;4.60;65.70
610;DHT22;292;48.800;9.216;2023-02-11T09:04:02;4.90;65.30
610;DHT22;292;48.800;9.216;2023-02-11T09:06:29;5.10;64.60
610;DHT22;292;48.800;9.216;2023-02-11T09:08:57;5.40;64.30
610;DHT22;292;48.800;9.216;2023-02-11T09:11:26;5.70;63.60
610;DHT22;292;48.800;9.216;2023-02-11T09:13:53;6.10;62.80
610;DHT22;292;48.800;9.216;2023-02-11T09:16:23;6.40;62.00
610;DHT22;292;48.800;9.216;2023-02-11T09:18:52;6.70;61.10
610;DHT22;292;48.800;9.216;2023-02-11T09:21:19;7.10;60.10
610;DHT22;292;48.800;9.216;2023-02-11T09:23:47;7.40;59.00
610;DHT22;292;48.800;9.216;2023-02-11T09:26:16;7.80;58.00
610;DHT22;292;48.800;9.216;2023-02-11T09:28:43;8.10;57.20
610;DHT22;292;48.800;9.216;2023-02-11T09:31:12;8.30;56.00
610;DHT22;292;48.800;9.216;2023-02-11T09:33:41;8.50;55.20
610;DHT22;292;48.800;9.216;2023-02-11T09:36:15;8.60;54.60
610;DHT22;292;48.800;9.216;2023-02-11T09:38:43;9.00;54.10
610;DHT22;292;48.800;9.216;2023-02-11T09:44:21;9.70;52.40
610;DHT22;292;48.800;9.216;2023-02-11T09:46:53;10.00;51.70
610;DHT22;292;48.800;9.216;2023-02-11T09:49:23;10.30;50.80
610;DHT22;292;48.800;9.216;2023-02-11T09:51:57;10.60;50.50
610;DHT22;292;48.800;9.216;2023-02-11T09:54:30;11.00;50.00
610;DHT22;292;48.800;9.216;2023-02-11T09:57:00;11.40;49.40
610;DHT22;292;48.800;9.216;2023-02-11T09:59:31;11.70;48.50
610;DHT22;292;48.800;9.216;2023-02-11T10:02:08;12.10;48.10
610;DHT22;292;48.800;9.216;2023-02-11T10:04:54;12.40;46.80
610;DHT22;292;48.800;9.216;2023-02-11T10:07:34;12.70;45.70
610;DHT22;292;48.800;9.216;2023-02-11T10:10:12;12.90;45.00
610;DHT22;292;48.800;9.216;2023-02-11T10:12:59;13.20;44.50
610;DHT22;292;48.800;9.216;2023-02-11T10:15:37;13.60;43.70
610;DHT22;292;48.800;9.216;2023-02-11T10:18:28;14.00;43.00
610;DHT22;292;48.800;9.216;2023-02-11T10:21:18;14.30;42.40
610;DHT22;292;48.800;9.216;2023-02-11T10:23:58;14.80;41.70
610;DHT22;292;48.800;9.216;2023-02-11T10:26:28;15.10;40.50
610;DHT22;292;48.800;9.216;2023-02-11T10:29:00;15.50;39.80
610;DHT22;292;48.800;9.216;2023-02-11T10:31:36;15.70;38.90
610;DHT22;292;48.800;9.216;2023-02-11T10:34:08;15.90;38.10
610;DHT22;292;48.800;9.216;2023-02-11T10:36:37;16.00;37.80
610;DHT22;292;48.800;9.216;2023-02-11T10:39:12;16.10;37.60
610;DHT22;292;48.800;9.216;2023-02-11T10:41:44;16.30;37.30
610;DHT22;292;48.800;9.216;2023-02-11T10:44:22;16.30;37.00
610;DHT22;292;48.800;9.216;2023-02-11T10:46:52;16.50;36.50
610;DHT22;292;48.800;9.216;2023-02-11T10:49:36;16.60;36.10
610;DHT22;292;48.800;9.216;2023-02-11T10:52:26;16.60;35.60
610;DHT22;292;48.800;9.216;2023-02-11T10:55:04;16.70;35.60
610;DHT22;292;48.800;9.216;2023-02-11T10:57:35;16.80;35.40
610;DHT22;292;48.800;9.216;2023-02-11T11:00:20;16.80;35.20
610;DHT22;292;48.800;9.216;2023-02-11T11:02:54;16.80;34.60
610;DHT22;292;48.800;9.216;2023-02-11T11:05:45;16.60;34.50
610;DHT22;292;48.800;9.216;2023-02-11T11:08:16;16.50;34.50
610;DHT22;292;48.800;9.216;2023-02-11T11:11:03;16.30;34.60
610;DHT22;292;48.800;9.216;2023-02-11T11:13:33;16.10;34.80
610;DHT22;292;48.800;9.216;2023-02-11T11:16:21;16.00;35.00
610;DHT22;292;48.800;9.216;2023-02-11T11:18:52;15.90;35.30
610;DHT22;292;48.800;9.216;2023-02-11T11:21:22;15.80;35.20
610;DHT22;292;48.800;9.216;2023-02-11T11:24:01;15.60;35.20
610;DHT22;292;48.800;9.216;2023-02-11T11:26:42;15.50;35.40
610;DHT22;292;48.800;9.216;2023-02-11T11:29:36;15.40;35.80
610;DHT22;292;48.800;9.216;2023-02-11T11:32:11;15.40;36.10
610;DHT22;292;48.800;9.216;2023-02-11T11:34:41;15.40;36.20
610;DHT22;292;48.800;9.216;2023-02-11T11:37:10;15.20;36.40
610;DHT22;292;48.800;9.216;2023-02-11T11:39:39;15.20;36.60
610;DHT22;292;48.800;9.216;2023-02-11T11:42:25;15.20;36.80
610;DHT22;292;48.800;9.216;2023-02-11T11:44:58;15.30;36.90
610;DHT22;292;48.800;9.216;2023-02-11T11:47:30;15.50;36.80
610;DHT22;292;48.800;9.216;2023-02-11T11:50:25;15.60;36.80
610;DHT22;292;48.800;9.216;2023-02-11T11:52:57;15.80;36.80
610;DHT22;292;48.800;9.216;2023-02-11T11:55:29;15.90;36.60
610;DHT22;292;48.800;9.216;2023-02-11T11:58:03;16.00;36.40
610;DHT22;292;48.800;9.216;2023-02-11T12:00:48;16.00;36.40
610;DHT22;292;48.800;9.216;2023-02-11T12:06:52;15.90;36.60
610;DHT22;292;48.800;9.216;2023-02-11T12:09:27;15.90;36.80
610;DHT22;292;48.800;9.216;2023-02-11T12:12:13;15.80;36.60
610;DHT22;292;48.800;9.216;2023-02-11T12:18:06;15.70;36.60
610;DHT22;292;48.800;9.216;2023-02-11T12:21:03;15.60;36.80
610;DHT22;292;48.800;9.216;2023-02-11T12:23:44;15.40;37.40
610;DHT22;292;48.800;9.216;2023-02-11T12:26:19;15.30;37.70
610;DHT22;292;48.800;9.216;2023-02-11T12:29:02;15.20;38.20
610;DHT22;292;48.800;9.216;2023-02-11T12:31:53;15.10;38.60
610;DHT22;292;48.800;9.216;2023-02-11T12:38:36;14.90;39.30
610;DHT22;292;48.800;9.216;2023-02-11T12:44:36;14.60;40.10
610;DHT22;292;48.800;9.216;2023-02-11T12:47:34;14.40;40.50
610;DHT22;292;48.800;9.216;2023-02-11T12:50:16;14.20;41.00
610;DHT22;292;48.800;9.216;2023-02-11T12:52:59;14.00;41.30
610;DHT22;292;48.800;9.216;2023-02-11T12:55:33;13.80;41.80
610;DHT22;292;48.800;9.216;2023-02-11T12:58:32;13.60;41.80
610;DHT22;292;48.800;9.216;2023-02-11T13:01:09;13.40;42.20
610;DHT22;292;48.800;9.216;2023-02-11T13:06:45;13.10;42.90
610;DHT22;292;48.800;9.216;2023-02-11T13:09:24;13.00;43.40
610;DHT22;292;48.800;9.216;2023-02-11T13:11:54;12.90;44.00
610;DHT22;292;48.800;9.216;2023-02-11T13:14:38;12.80;44.40
610;DHT22;292;48.800;9.216;2023-02-11T13:17:32;12.80;45.00
610;DHT22;292;48.800;9.216;2023-02-11T13:20:06;12.60;45.60
610;DHT22;292;48.800;9.216;2023-02-11T13:22:45;12.50;46.20
610;DHT22;292;48.800;9.216;2023-02-11T13:25:41;12.40;46.90
610;DHT22;292;48.800;9.216;2023-02-11T13:28:37;12.30;47.30
610;DHT22;292;48.800;9.216;2023-02-11T13:31:11;12.20;47.70
610;DHT22;292;48.800;9.216;2023-02-11T13:33:46;12.10;48.20
610;DHT22;292;48.800;9.216;2023-02-11T13:36:19;12.00;48.50
610;DHT22;292;48.800;9.216;2023-02-11T13:38:58;12.00;48.80
610;DHT22;292;48.800;9.216;2023-02-11T13:41:36;12.00;49.20
610;DHT22;292;48.800;9.216;2023-02-11T13:44:27;12.00;49.30
610;DHT22;292;48.800;9.216;2023-02-11T13:46:59;12.00;49.60
610;DHT22;292;48.800;9.216;2023-02-11T13:49:30;12.10;49.60
610;DHT22;292;48.800;9.216;2023-02-11T13:58:48;12.30;49.60
610;DHT22;292;48.800;9.216;2023-02-11T14:01:39;12.40;49.60
610;DHT22;292;48.800;9.216;2023-02-11T14:04:21;12.40;49.60
610;DHT22;292;48.800;9.216;2023-02-11T14:07:25;12.50;49.40
610;DHT22;292;48.800;9.216;2023-02-11T14:13:23;12.60;49.40
610;DHT22;292;48.800;9.216;2023-02-11T14:16:06;12.60;49.30
610;DHT22;292;48.800;9.216;2023-02-11T14:21:23;12.60;49.20
610;DHT22;292;48.800;9.216;2023-02-11T14:27:07;12.60;49.30
610;DHT22;292;48.800;9.216;2023-02-11T14:29:40;12.60;49.20
610;DHT22;292;48.800;9.216;2023-02-11T14:32:18;12.60;49.20
610;DHT22;292;48.800;9.216;2023-02-11T14:34:55;12.60;49.00
610;DHT22;292;48.800;9.216;2023-02-11T14:37:34;12.60;49.20
610;DHT22;292;48.800;9.216;2023-02-11T14:40:14;12.60;49.20
610;DHT22;292;48.800;9.216;2023-02-11T14:42:44;12.60;49.00
610;DHT22;292;48.800;9.216;2023-02-11T14:45:23;12.50;49.00
610;DHT22;292;48.800;9.216;2023-02-11T14:47:56;12.50;48.80
610;DHT22;292;48.800;9.216;2023-02-11T14:50:32;12.50;48.80
610;DHT22;292;48.800;9.216;2023-02-11T14:53:00;12.40;48.60
610;DHT22;292;48.800;9.216;2023-02-11T14:55:32;12.40;48.60
610;DHT22;292;48.800;9.216;2023-02-11T14:58:18;12.40;48.60
610;DHT22;292;48.800;9.216;2023-02-11T15:00:51;12.30;48.80
610;DHT22;292;48.800;9.216;2023-02-11T15:03:32;12.20;49.00
610;DHT22;292;48.800;9.216;2023-02-11T15:06:04;12.20;49.30
610;DHT22;292;48.800;9.216;2023-02-11T15:08:34;12.10;49.60
610;DHT22;292;48.800;9.216;2023-02-11T15:11:09;12.00;49.70
610;DHT22;292;48.800;9.216;2023-02-11T15:13:38;11.90;49.70
610;DHT22;292;48.800;9.216;2023-02-11T15:16:14;11.90;49.80
610;DHT22;292;48.800;9.216;2023-02-11T15:18:48;11.80;49.80
610;DHT22;292;48.800;9.216;2023-02-11T15:21:20;11.70;50.10
610;DHT22;292;48.800;9.216;2023-02-11T15:23:58;11.60;50.20
610;DHT22;292;48.800;9.216;2023-02-11T15:26:25;11.60;50.40
610;DHT22;292;48.800;9.216;2023-02-11T15:28:53;11.50;50.50
610;DHT22;292;48.800;9.216;2023-02-11T15:31:22;11.40;50.80
610;DHT22;292;48.800;9.216;2023-02-11T15:33:51;11.40;50.90
610;DHT22;292;48.800;9.216;2023-02-11T15:36:20;11.40;51.00
610;DHT22;292;48.800;9.216;2023-02-11T15:39:15;11.30;51.20
610;DHT22;292;48.800;9.216;2023-02-11T15:41:43;11.20;51.40
610;DHT22;292;48.800;9.216;2023-02-11T15:44:25;11.20;51.60
610;DHT22;292;48.800;9.216;2023-02-11T15:46:52;11.10;51.70
610;DHT22;292;48.800;9.216;2023-02-11T15:49:23;11.10;51.80
610;DHT22;292;48.800;9.216;2023-02-11T15:51:51;11.00;52.10
610;DHT22;292;48.800;9.216;2023-02-11T15:54:21;11.00;52.40
610;DHT22;292;48.800;9.216;2023-02-11T15:56:50;10.90;52.50
610;DHT22;292;48.800;9.216;2023-02-11T15:59:19;10.90;52.60
610;DHT22;292;48.800;9.216;2023-02-11T16:01:47;10.80;52.80
610;DHT22;292;48.800;9.216;2023-02-11T16:04:16;10.80;52.90
610;DHT22;292;48.800;9.216;2023-02-11T16:06:46;10.70;53.20
610;DHT22;292;48.800;9.216;2023-02-11T16:09:26;10.70;53.30
610;DHT22;292;48.800;9.216;2023-02-11T16:12:01;10.60;53.60
610;DHT22;292;48.800;9.216;2023-02-11T16:14:33;10.60;53.70
610;DHT22;292;48.800;9.216;2023-02-11T16:17:04;10.50;53.80
610;DHT22;292;48.800;9.216;2023-02-11T16:19:33;10.50;54.10
610;DHT22;292;48.800;9.216;2023-02-11T16:22:07;10.50;54.20
610;DHT22;292;48.800;9.216;2023-02-11T16:24:36;10.40;54.40
610;DHT22;292;48.800;9.216;2023-02-11T16:27:06;10.40;54.50
610;DHT22;292;48.800;9.216;2023-02-11T16:29:35;10.40;54.90
610;DHT22;292;48.800;9.216;2023-02-11T16:32:09;10.30;54.90
610;DHT22;292;48.800;9.216;2023-02-11T16:34:41;10.30;55.00
610;DHT22;292;48.800;9.216;2023-02-11T16:37:15;10.30;55.20
610;DHT22;292;48.800;9.216;2023-02-11T16:39:42;10.30;55.30
610;DHT22;292;48.800;9.216;2023-02-11T16:42:10;10.20;55.40
610;DHT22;292;48.800;9.216;2023-02-11T16:44:37;10.20;55.60
610;DHT22;292;48.800;9.216;2023-02-11T16:47:09;10.20;55.60
610;DHT22;292;48.800;9.216;2023-02-11T16:49:40;10.10;55.70
610;DHT22;292;48.800;9.216;2023-02-11T16:52:16;10.20;55.70
610;DHT22;292;48.800;9.216;2023-02-11T16:54:44;10.10;55.80
610;DHT22;292;48.800;9.216;2023-02-11T16:57:14;10.10;55.80
610;DHT22;292;48.800;9.216;2023-02-11T16:59:42;10.10;56.00
610;DHT22;292;48.800;9.216;2023-02-11T17:02:13;10.10;56.00
610;DHT22;292;48.800;9.216;2023-02-11T17:04:41;10.10;56.10
610;DHT22;292;48.800;9.216;2023-02-11T17:07:08;10.00;56.20
610;DHT22;292;48.800;9.216;2023-02-11T17:09:37;10.00;56.40
610;DHT22;292;48.800;9.216;2023-02-11T17:12:05;10.00;56.50
610;DHT22;292;48.800;9.216;2023-02-11T17:14:32;9.90;56.60
610;DHT22;292;48.800;9.216;2023-02-11T17:16:59;9.90;56.90
610;DHT22;292;48.800;9.216;2023-02-11T17:19:26;9.90;57.00
610;DHT22;292;48.800;9.216;2023-02-11T17:21:54;9.90;57.20
610;DHT22;292;48.800;9.216;2023-02-11T17:24:21;9.90;57.20
610;DHT22;292;48.800;9.216;2023-02-11T17:26:50;9.80;57.30
610;DHT22;292;48.800;9.216;2023-02-11T17:29:19;9.80;57.40
610;DHT22;292;48.800;9.216;2023-02-11T17:31:46;9.80;57.60
610;DHT22;292;48.800;9.216;2023-02-11T17:34:14;9.80;57.60
610;DHT22;292;48.800;9.216;2023-02-11T17:36:43;9.80;57.70
610;DHT22;292;48.800;9.216;2023-02-11T17:39:12;9.80;57.80
610;DHT22;292;48.800;9.216;2023-02-11T17:41:43;9.70;57.80
610;DHT22;292;48.800;9.216;2023-02-11T17:44:12;9.70;58.00
610;DHT22;292;48.800;9.216;2023-02-11T17:46:40;9.70;58.00
610;DHT22;292;48.800;9.216;2023-02-11T17:49:09;9.70;58.10
610;DHT22;292;48.800;9.216;2023-02-11T17:51:38;9.70;58.10
610;DHT22;292;48.800;9.216;2023-02-11T17:54:07;9.70;58.20
610;DHT22;292;48.800;9.216;2023-02-11T17:56:37;9.70;58.40
610;DHT22;292;48.800;9.216;2023-02-11T17:59:05;9.70;58.40